Time;durP1;ratioP1;P1;durP2;ratioP2;P2;SDS_P1;SDS_P2;PMS_P1;PMS_P2;Temp;Humidity;BMP_temperature;BMP_pressure;BME280_temperature;BME280_humidity;BME280_pressure;Samples;Min_cycle;Max_cycle;Signal;HPM_P1;HPM_P2
2023/05/11 00:00:28;;;;;;;10.45;6.22;;;;;;;11.04;63.44;95413.69;5049243;28;20095;-77
2023/05/11 00:02:54;;;;;;;7.60;6.78;;;;;;;11.43;62.72;95460.81;5049286;28;20115;-76
2023/05/11 00:05:19;;;;;;;10.75;6.85;;;;;;;11.17;63.02;95431.69;5048763;28;20032;-77
2023/05/11 00:07:45;;;;;;;7.80;5.80;;;;;;;11.20;62.19;95419.75;5050829;28;20051;-76
2023/05/11 00:10:10;;;;;;;10.52;6.13;;;;;;;10.87;62.50;95367.31;5050445;28;20032;-79
2023/05/11 00:12:36;;;;;;;11.25;6.15;;;;;;;11.41;62.24;95433.75;5050942;28;20029;-77
2023/05/11 00:15:02;;;;;;;11.20;6.22;;;;;;;11.50;62.91;95458.69;5050390;28;20163;-77
2023/05/11 00:17:27;;;;;;;11.20;6.05;;;;;;;11.28;62.91;95429.03;5049131;28;20423;-77
2023/05/11 00:19:53;;;;;;;8.23;5.88;;;;;;;11.37;62.83;95449.41;5049699;28;20625;-77
2023/05/11 00:22:18;;;;;;;7.30;6.10;;;;;;;11.34;62.35;95439.34;5052734;28;20052;-77
2023/05/11 00:24:44;;;;;;;8.75;5.80;;;;;;;10.87;63.13;95405.25;5054513;28;20025;-76
2023/05/11 00:27:09;;;;;;;9.95;5.97;;;;;;;11.18;62.31;95435.16;5054463;28;20045;-77
2023/05/11 00:29:35;;;;;;;8.60;5.70;;;;;;;11.22;62.37;95447.59;5052326;28;20053;-76
2023/05/11 00:32:00;;;;;;;8.30;5.57;;;;;;;11.14;62.09;95432.22;5053735;28;20037;-77
2023/05/11 00:34:25;;;;;;;10.00;6.03;;;;;;;11.24;62.44;95460.59;5054538;28;20033;-77
2023/05/11 00:36:51;;;;;;;6.47;5.18;;;;;;;10.87;62.49;95426.47;5054034;28;20104;-76
2023/05/11 00:39:17;;;;;;;6.57;4.93;;;;;;;11.22;62.19;95468.03;5052357;28;20071;-77
2023/05/11 00:41:42;;;;;;;7.30;5.32;;;;;;;11.03;61.96;95446.59;5054021;28;20029;-77
2023/05/11 00:44:08;;;;;;;9.50;5.63;;;;;;;11.00;62.46;95460.41;5052654;28;20041;-76
2023/05/11 00:46:33;;;;;;;11.50;5.75;;;;;;;10.80;62.03;95418.00;5053923;28;20032;-77
2023/05/11 00:48:59;;;;;;;6.55;4.90;;;;;;;10.83;62.24;95444.78;5052034;28;20041;-77
2023/05/11 00:51:25;;;;;;;7.22;5.57;;;;;;;10.86;62.52;95447.97;5051738;28;20057;-76
2023/05/11 00:53:51;;;;;;;11.90;6.63;;;;;;;10.78;62.47;95428.06;5053742;28;20604;-77
2023/05/11 00:56:16;;;;;;;9.15;5.30;;;;;;;11.09;62.18;95468.63;5052892;28;20330;-77
2023/05/11 00:58:41;;;;;;;11.60;5.78;;;;;;;10.85;62.34;95455.13;5053511;28;20082;-77
2023/05/11 01:01:07;;;;;;;8.07;5.85;;;;;;;10.91;62.44;95454.03;5053032;28;20025;-77
2023/05/11 01:03:34;;;;;;;10.15;5.82;;;;;;;10.78;62.18;95428.88;5053870;28;20410;-77
2023/05/11 01:06:08;;;;;;;10.63;6.13;;;;;;;11.03;61.48;95462.53;5051820;28;20172;-76
2023/05/11 01:08:41;;;;;;;7.38;5.43;;;;;;;10.78;62.29;95442.13;5016366;28;20041;-76
2023/05/11 01:11:18;;;;;;;14.05;6.28;;;;;;;10.98;61.82;95465.22;5051550;28;20033;-77
2023/05/11 01:13:59;;;;;;;8.20;5.90;;;;;;;10.89;61.64;95450.09;5051809;28;20039;-77
2023/05/11 01:16:27;;;;;;;8.07;6.00;;;;;;;10.99;62.21;95466.78;5043138;28;20029;-77
2023/05/11 01:19:11;;;;;;;12.23;5.40;;;;;;;11.02;61.57;95460.13;5032152;28;20945;-76
2023/05/11 01:21:39;;;;;;;12.07;5.72;;;;;;;10.83;61.55;95458.03;5046286;28;20040;-77
2023/05/11 01:24:23;;;;;;;7.82;5.70;;;;;;;10.81;61.62;95462.84;5051639;28;20029;-77
2023/05/11 01:27:14;;;;;;;7.07;4.80;;;;;;;10.91;61.24;95462.00;5051553;28;20129;-77
2023/05/11 01:29:46;;;;;;;9.40;5.85;;;;;;;10.93;60.92;95464.41;5051262;28;20041;-77
2023/05/11 01:32:22;;;;;;;10.20;5.78;;;;;;;10.65;60.83;95432.09;5050127;28;20060;-77
2023/05/11 01:34:57;;;;;;;13.77;5.53;;;;;;;10.65;61.38;95442.69;5051213;28;20033;-78
2023/05/11 01:37:25;;;;;;;11.25;5.93;;;;;;;10.54;61.50;95424.38;5050308;28;20060;-78
2023/05/11 01:39:53;;;;;;;8.95;6.32;;;;;;;10.69;61.88;95451.69;5051195;28;20040;-79
2023/05/11 01:42:31;;;;;;;11.45;6.25;;;;;;;10.89;61.34;95472.13;5049555;28;20040;-78
2023/05/11 01:44:59;;;;;;;14.68;5.88;;;;;;;10.83;61.02;95460.69;5047414;28;20021;-77
2023/05/11 01:47:27;;;;;;;11.13;6.43;;;;;;;10.70;61.07;95428.63;5048929;28;20064;-78
2023/05/11 01:49:54;;;;;;;8.60;5.50;;;;;;;10.69;61.51;95442.94;5050375;28;20037;-78
2023/05/11 01:52:23;;;;;;;11.70;5.82;;;;;;;10.96;61.13;95474.50;5050932;28;20029;-79
2023/05/11 01:54:51;;;;;;;11.07;6.00;;;;;;;10.76;61.35;95432.84;5051490;28;20487;-78
2023/05/11 01:57:18;;;;;;;11.40;5.75;;;;;;;10.79;61.09;95451.69;5050687;28;20112;-79
2023/05/11 01:59:46;;;;;;;11.75;5.85;;;;;;;10.84;60.89;95466.78;5049322;28;20115;-79
2023/05/11 02:02:13;;;;;;;13.88;5.95;;;;;;;10.65;60.55;95426.78;5048771;28;20832;-78
2023/05/11 02:04:40;;;;;;;9.93;6.53;;;;;;;10.66;60.97;95436.34;5049630;28;20126;-78
2023/05/11 02:07:09;;;;;;;12.18;6.10;;;;;;;10.67;61.64;95463.66;5050359;28;20029;-78
2023/05/11 02:09:36;;;;;;;10.50;6.22;;;;;;;10.76;62.15;95476.09;5049074;28;20044;-79
2023/05/11 02:12:04;;;;;;;14.43;6.40;;;;;;;10.83;61.53;95473.19;5050865;28;20031;-79
2023/05/11 02:14:33;;;;;;;9.77;6.55;;;;;;;10.72;61.55;95461.78;5048853;28;20056;-78
2023/05/11 02:17:00;;;;;;;9.15;5.30;;;;;;;10.81;60.96;95448.78;5050574;28;20029;-79
2023/05/11 02:19:28;;;;;;;10.68;6.43;;;;;;;10.74;60.98;95441.09;5048574;28;20036;-78
2023/05/11 02:21:54;;;;;;;7.97;5.70;;;;;;;10.94;60.57;95471.31;5032873;28;20357;-79
2023/05/11 02:24:22;;;;;;;8.80;6.38;;;;;;;10.75;60.87;95447.19;5048616;28;20024;-79
2023/05/11 02:26:48;;;;;;;7.38;5.63;;;;;;;10.74;60.76;95450.91;5050283;28;20048;-79
2023/05/11 02:29:13;;;;;;;12.20;5.75;;;;;;;10.43;61.00;95405.84;5048741;28;20136;-79
2023/05/11 02:31:46;;;;;;;9.30;5.75;;;;;;;10.82;61.09;95460.97;5048700;28;20056;-79
2023/05/11 02:34:24;;;;;;;10.27;5.70;;;;;;;10.42;61.87;95432.63;5048392;28;20045;-80
2023/05/11 02:36:54;;;;;;;13.60;6.13;;;;;;;10.65;61.26;95455.16;5050602;28;20033;-79
2023/05/11 02:39:21;;;;;;;8.80;5.88;;;;;;;10.79;61.32;95466.81;5048958;28;20040;-79
2023/05/11 02:41:54;;;;;;;10.43;6.68;;;;;;;10.70;61.48;95471.84;5049593;28;20036;-79
2023/05/11 02:44:23;;;;;;;11.02;6.28;;;;;;;10.67;61.62;95469.75;5048591;28;20037;-79
2023/05/11 02:46:51;;;;;;;11.15;6.65;;;;;;;10.59;61.97;95453.56;5049834;28;20047;-79
2023/05/11 02:49:21;;;;;;;13.25;6.38;;;;;;;10.70;61.62;95471.84;5048434;28;20479;-79
2023/05/11 02:51:49;;;;;;;8.02;5.82;;;;;;;10.47;61.76;95426.53;5050131;28;20112;-79
2023/05/11 02:54:16;;;;;;;10.93;6.75;;;;;;;10.39;61.52;95419.91;5047756;28;20479;-79
2023/05/11 02:56:42;;;;;;;11.25;6.65;;;;;;;10.25;61.87;95408.25;5048390;28;20112;-79
2023/05/11 02:59:07;;;;;;;14.18;7.18;;;;;;;10.40;62.15;95429.44;5049387;28;20112;-79
2023/05/11 03:01:34;;;;;;;10.23;6.47;;;;;;;10.39;62.44;95446.41;5048293;28;20090;-79
2023/05/11 03:04:03;;;;;;;9.32;6.25;;;;;;;10.52;62.30;95463.66;5049456;28;20108;-79
2023/05/11 03:06:28;;;;;;;11.45;7.00;;;;;;;9.93;62.45;95385.41;5047922;28;20033;-79
2023/05/11 03:08:54;;;;;;;12.13;5.97;;;;;;;9.98;62.88;95408.47;5048152;28;20135;-79
2023/05/11 03:11:20;;;;;;;10.05;6.68;;;;;;;10.12;62.95;95401.59;5048115;28;20411;-79
2023/05/11 03:13:46;;;;;;;8.40;6.30;;;;;;;10.34;62.18;95428.66;5048251;28;20048;-79
2023/05/11 03:16:12;;;;;;;8.05;6.30;;;;;;;10.22;62.80;95457.25;5049400;28;20399;-79
2023/05/11 03:18:38;;;;;;;11.07;6.88;;;;;;;9.72;62.98;95365.25;5047937;28;20514;-79
2023/05/11 03:21:04;;;;;;;11.77;6.32;;;;;;;9.95;62.79;95425.69;5049164;28;20048;-79
2023/05/11 03:23:31;;;;;;;10.23;6.70;;;;;;;10.15;62.83;95440.00;5048105;28;20480;-79
2023/05/11 03:25:58;;;;;;;14.50;7.05;;;;;;;10.05;63.20;95423.06;5048025;28;20404;-79
2023/05/11 03:28:24;;;;;;;13.40;7.32;;;;;;;10.27;63.48;95467.09;5049514;28;20060;-79
2023/05/11 03:30:52;;;;;;;8.60;7.03;;;;;;;10.16;63.55;95468.09;5049172;28;20063;-79
2023/05/11 03:33:18;;;;;;;14.98;7.13;;;;;;;10.04;63.62;95455.91;5047804;28;20085;-79
2023/05/11 03:35:46;;;;;;;16.48;8.27;;;;;;;10.17;64.20;95478.47;5047583;28;20463;-79
2023/05/11 03:38:14;;;;;;;14.23;7.97;;;;;;;9.89;64.03;95439.19;5048180;28;20048;-79
2023/05/11 03:40:41;;;;;;;13.40;8.32;;;;;;;10.03;63.32;95454.31;5047840;28;20021;-79
2023/05/11 03:43:11;;;;;;;12.13;8.00;;;;;;;10.12;64.21;95472.34;5047534;28;20064;-79
2023/05/11 03:45:38;;;;;;;11.95;8.40;;;;;;;9.87;63.89;95422.75;5047512;28;20567;-79
2023/05/11 03:48:05;;;;;;;11.50;7.78;;;;;;;10.07;64.15;95458.00;5047764;28;20032;-79
2023/05/11 03:50:32;;;;;;;14.15;7.85;;;;;;;9.91;64.26;95437.06;5049462;28;20776;-79
2023/05/11 03:52:59;;;;;;;13.05;8.77;;;;;;;10.16;63.74;95454.84;5047561;28;20056;-79
2023/05/11 03:55:25;;;;;;;16.35;9.27;;;;;;;10.16;64.05;95471.53;5048786;28;20415;-78
2023/05/11 03:57:51;;;;;;;12.38;8.80;;;;;;;10.26;63.90;95484.84;5051285;28;20039;-79
2023/05/11 04:00:17;;;;;;;11.50;8.50;;;;;;;9.76;64.01;95387.53;5055440;28;20037;-76
2023/05/11 04:02:42;;;;;;;12.80;9.57;;;;;;;10.43;63.84;95482.75;5055185;28;20036;-76
2023/05/11 04:05:10;;;;;;;19.92;8.32;;;;;;;10.26;63.71;95468.16;5055089;28;20159;-76
2023/05/11 04:07:37;;;;;;;13.52;10.18;;;;;;;10.36;64.31;95492.81;5053040;28;20090;-76
2023/05/11 04:10:03;;;;;;;19.25;10.25;;;;;;;10.44;64.36;95486.19;5035104;28;20033;-77
2023/05/11 04:12:29;;;;;;;15.63;9.38;;;;;;;9.85;64.15;95412.41;5030981;28;20095;-76
2023/05/11 04:14:54;;;;;;;13.70;10.48;;;;;;;10.11;64.65;95450.34;5027855;28;20033;-76
2023/05/11 04:17:19;;;;;;;18.63;11.00;;;;;;;10.06;65.05;95461.75;5031006;28;20113;-77
2023/05/11 04:19:45;;;;;;;31.40;12.73;;;;;;;9.83;64.35;95416.41;5021366;28;20479;-77
2023/05/11 04:22:11;;;;;;;13.57;10.95;;;;;;;10.18;65.10;95484.56;5029075;28;20129;-77
2023/05/11 04:24:37;;;;;;;14.02;10.60;;;;;;;10.22;64.85;95469.75;5025912;28;20029;-78
2023/05/11 04:27:02;;;;;;;18.27;10.50;;;;;;;9.97;64.88;95434.16;5022680;28;20033;-77
2023/05/11 04:29:28;;;;;;;16.25;11.55;;;;;;;9.65;65.59;95425.63;5010774;28;20167;-76
2023/05/11 04:31:54;;;;;;;16.38;11.05;;;;;;;10.22;65.42;95493.59;5027765;28;20534;-77
2023/05/11 04:34:19;;;;;;;22.50;12.38;;;;;;;9.94;65.90;95468.31;5030397;28;20034;-77
2023/05/11 04:36:48;;;;;;;25.77;13.38;;;;;;;10.29;65.54;95494.13;5033167;28;20266;-77
2023/05/11 04:39:15;;;;;;;19.38;12.00;;;;;;;9.97;65.86;95460.66;5038689;28;20033;-76
2023/05/11 04:41:44;;;;;;;26.60;12.70;;;;;;;10.10;65.09;95461.19;5030879;28;20068;-77
2023/05/11 04:44:10;;;;;;;19.02;12.98;;;;;;;9.95;65.79;95438.13;5028674;28;20036;-77
2023/05/11 04:46:37;;;;;;;26.50;13.82;;;;;;;10.21;65.83;95492.81;5039291;28;20368;-76
2023/05/11 04:49:04;;;;;;;22.17;12.43;;;;;;;10.11;65.94;95482.16;5034045;28;20033;-76
2023/05/11 04:51:30;;;;;;;18.70;13.07;;;;;;;10.27;65.47;95488.28;5036861;28;20048;-75
2023/05/11 04:53:55;;;;;;;23.85;15.07;;;;;;;10.34;65.29;95486.97;5031082;28;20032;-76
2023/05/11 04:56:20;;;;;;;17.80;12.75;;;;;;;10.34;65.06;95472.94;5029835;28;20040;-76
2023/05/11 04:58:46;;;;;;;22.00;14.35;;;;;;;10.33;65.42;95479.28;5034749;28;20103;-76
2023/05/11 05:01:11;;;;;;;16.55;12.57;;;;;;;10.19;65.46;95468.41;5026039;28;20037;-76
2023/05/11 05:03:37;;;;;;;20.52;15.38;;;;;;;10.10;65.93;95479.75;5025800;28;20087;-76
2023/05/11 05:06:02;;;;;;;22.25;12.98;;;;;;;10.14;65.97;95465.72;5026702;28;20432;-77
2023/05/11 05:08:28;;;;;;;29.60;15.45;;;;;;;10.37;66.14;95507.66;5023690;28;20044;-76
2023/05/11 05:10:53;;;;;;;28.10;14.93;;;;;;;10.02;66.36;95465.97;5022460;28;20033;-77
2023/05/11 05:13:19;;;;;;;20.80;15.05;;;;;;;10.16;66.24;95505.19;5020435;28;20128;-78
2023/05/11 05:15:44;;;;;;;24.02;15.15;;;;;;;9.73;66.43;95440.22;5021285;28;20064;-78
2023/05/11 05:18:10;;;;;;;23.50;15.10;;;;;;;10.14;65.76;95488.78;5019421;28;20598;-76
2023/05/11 05:20:35;;;;;;;21.17;13.70;;;;;;;10.22;65.85;95498.91;5048543;28;20304;-76
2023/05/11 05:23:01;;;;;;;24.10;15.50;;;;;;;10.33;65.83;95505.78;5015092;28;20416;-77
2023/05/11 05:25:27;;;;;;;22.48;14.88;;;;;;;10.28;66.59;95516.41;5024045;28;20074;-76
2023/05/11 05:27:52;;;;;;;19.38;14.27;;;;;;;10.26;66.15;95481.41;5029364;28;20036;-78
2023/05/11 05:30:18;;;;;;;22.80;14.55;;;;;;;9.96;66.06;95467.00;5025524;28;20061;-78
2023/05/11 05:32:43;;;;;;;25.92;16.45;;;;;;;10.42;66.31;95522.78;5027685;28;20231;-77
2023/05/11 05:35:09;;;;;;;18.73;14.80;;;;;;;10.36;65.90;95495.47;5008394;28;20068;-77
2023/05/11 05:37:36;;;;;;;27.73;16.10;;;;;;;10.40;66.20;95523.03;5055124;28;20045;-78
2023/05/11 05:40:03;;;;;;;23.52;15.65;;;;;;;10.41;66.62;95526.47;5026145;28;20440;-78
2023/05/11 05:42:28;;;;;;;22.77;16.20;;;;;;;10.35;66.07;95509.78;5021294;28;20460;-78
2023/05/11 05:44:53;;;;;;;24.80;16.63;;;;;;;10.42;66.30;95526.22;5023932;28;20033;-78
2023/05/11 05:47:19;;;;;;;29.38;15.88;;;;;;;10.19;66.79;95539.97;5029507;28;20554;-77
2023/05/11 05:49:44;;;;;;;28.73;17.13;;;;;;;10.06;65.91;95484.78;5018067;28;20029;-78
2023/05/11 05:52:10;;;;;;;27.10;16.95;;;;;;;9.91;65.75;95447.69;5026400;28;20036;-79
2023/05/11 05:54:35;;;;;;;27.88;16.70;;;;;;;10.13;66.08;95497.78;5027648;28;20119;-78
2023/05/11 05:57:00;;;;;;;27.75;17.25;;;;;;;10.45;66.37;95544.25;5035052;28;20128;-76
2023/05/11 05:59:26;;;;;;;25.77;16.58;;;;;;;10.30;65.98;95520.34;5020692;28;20040;-77
2023/05/11 06:01:51;;;;;;;22.35;16.38;;;;;;;10.06;65.92;95492.75;5023239;28;20167;-83
2023/05/11 06:04:17;;;;;;;26.48;17.48;;;;;;;10.52;66.00;95527.31;5020135;28;20561;-77
2023/05/11 06:06:43;;;;;;;28.08;18.00;;;;;;;10.39;66.02;95534.69;5023751;28;20128;-76
2023/05/11 06:09:08;;;;;;;26.17;16.05;;;;;;;10.56;65.53;95531.81;5026037;28;20033;-77
2023/05/11 06:11:34;;;;;;;24.13;17.88;;;;;;;10.47;65.67;95514.81;5023205;28;20041;-78
2023/05/11 06:13:59;;;;;;;25.75;18.20;;;;;;;10.13;65.66;95468.63;5023633;28;21354;-85
2023/05/11 06:16:26;;;;;;;22.35;16.05;;;;;;;10.79;65.56;95549.84;5014627;28;20069;-77
2023/05/11 06:18:52;;;;;;;26.20;15.93;;;;;;;10.77;65.26;95549.31;5025150;28;20341;-76
2023/05/11 06:21:17;;;;;;;22.58;14.90;;;;;;;10.29;65.37;95483.53;5021040;28;20079;-77
2023/05/11 06:23:42;;;;;;;24.45;15.05;;;;;;;10.65;65.06;95548.00;5028004;28;20706;-77
2023/05/11 06:26:08;;;;;;;22.80;15.07;;;;;;;10.83;65.18;95560.75;5030874;28;20102;-78
2023/05/11 06:28:33;;;;;;;24.17;13.70;;;;;;;10.75;65.14;95564.72;5028011;28;20068;-77
2023/05/11 06:30:58;;;;;;;27.33;15.68;;;;;;;10.72;64.98;95554.63;5019243;28;20468;-78
2023/05/11 06:33:25;;;;;;;23.10;14.38;;;;;;;10.58;64.89;95526.25;5025695;28;20048;-77
2023/05/11 06:35:50;;;;;;;21.38;14.15;;;;;;;10.39;64.41;95496.78;5025506;28;20041;-77
2023/05/11 06:38:16;;;;;;;23.20;14.73;;;;;;;10.58;64.76;95529.69;5030283;28;20522;-77
2023/05/11 06:40:41;;;;;;;25.35;15.65;;;;;;;10.97;64.51;95574.28;5030877;28;20515;-77
2023/05/11 06:43:07;;;;;;;24.70;15.05;;;;;;;10.44;65.14;95531.28;5028153;28;20050;-76
2023/05/11 06:45:32;;;;;;;20.65;14.63;;;;;;;10.34;64.86;95512.69;5025995;28;20033;-77
2023/05/11 06:47:58;;;;;;;25.73;13.98;;;;;;;10.82;64.56;95575.88;5016600;28;20227;-77
2023/05/11 06:50:23;;;;;;;19.77;14.25;;;;;;;10.25;64.71;95474.50;5016819;28;20038;-77
2023/05/11 06:52:49;;;;;;;22.50;12.82;;;;;;;10.71;64.44;95571.59;5017050;28;20064;-78
2023/05/11 06:55:14;;;;;;;19.02;12.88;;;;;;;10.56;64.52;95533.66;5021133;28;20179;-81
2023/05/11 06:57:40;;;;;;;20.50;12.82;;;;;;;10.45;64.28;95531.00;5025219;28;20038;-80
2023/05/11 07:00:06;;;;;;;23.35;12.85;;;;;;;10.57;64.33;95570.53;5031096;28;20065;-79
2023/05/11 07:02:32;;;;;;;21.02;12.85;;;;;;;10.62;64.18;95548.50;5030222;28;20524;-81
2023/05/11 07:04:57;;;;;;;15.00;11.63;;;;;;;10.81;63.75;95553.03;5027653;28;20026;-78
2023/05/11 07:07:32;;;;;;;18.58;13.13;;;;;;;10.65;63.71;95516.16;5024144;28;20076;-79
2023/05/11 07:09:57;;;;;;;23.85;11.60;;;;;;;10.73;63.52;95526.25;5053825;28;20127;-80
2023/05/11 07:12:23;;;;;;;22.15;10.27;;;;;;;10.37;63.95;95483.00;5017416;28;20037;-77
2023/05/11 07:14:49;;;;;;;17.73;9.88;;;;;;;10.97;63.03;95545.88;5021492;28;20044;-77
2023/05/11 07:17:14;;;;;;;16.63;10.43;;;;;;;10.99;62.47;95550.91;5022894;28;20033;-77
2023/05/11 07:19:39;;;;;;;14.73;10.00;;;;;;;10.64;63.05;95512.72;5027911;28;20036;-77
2023/05/11 07:22:05;;;;;;;22.88;9.02;;;;;;;11.10;63.03;95555.16;5030467;28;20037;-77
2023/05/11 07:24:31;;;;;;;16.55;9.52;;;;;;;11.11;62.50;95541.63;5028796;28;20067;-77
2023/05/11 07:26:56;;;;;;;11.93;8.20;;;;;;;11.03;62.05;95520.13;5027106;28;20463;-76
2023/05/11 07:29:22;;;;;;;10.38;8.07;;;;;;;11.45;62.00;95571.00;5058370;28;20103;-76
2023/05/11 07:31:47;;;;;;;12.77;8.30;;;;;;;11.46;61.05;95575.25;5031809;28;20029;-77
2023/05/11 07:34:12;;;;;;;14.27;7.68;;;;;;;11.45;61.72;95575.53;5022008;28;20033;-76
2023/05/11 07:36:38;;;;;;;10.40;7.72;;;;;;;11.57;60.80;95565.41;5024557;28;20044;-77
2023/05/11 07:39:03;;;;;;;14.15;8.93;;;;;;;11.38;60.64;95541.28;5023296;28;20089;-77
2023/05/11 07:41:29;;;;;;;9.20;7.50;;;;;;;11.61;59.48;95551.31;5031867;28;20039;-77
2023/05/11 07:43:55;;;;;;;13.75;7.50;;;;;;;11.68;58.90;95535.09;5020934;28;20037;-78
2023/05/11 07:46:20;;;;;;;15.32;8.60;;;;;;;12.00;57.82;95534.72;5016652;28;20029;-77
2023/05/11 07:48:46;;;;;;;22.05;11.27;;;;;;;12.05;59.18;95540.03;5020366;28;20021;-77
2023/05/11 07:51:12;;;;;;;24.23;13.05;;;;;;;12.19;58.21;95530.38;5028390;28;20033;-82
2023/05/11 07:53:37;;;;;;;17.13;11.60;;;;;;;12.26;58.28;95538.06;5018690;28;20044;-78
2023/05/11 07:56:03;;;;;;;18.33;11.88;;;;;;;12.39;57.57;95526.81;5011142;28;20427;-79
2023/05/11 07:58:31;;;;;;;20.55;12.35;;;;;;;12.82;58.00;95566.94;5017285;28;20606;-81
2023/05/11 08:00:57;;;;;;;14.93;11.45;;;;;;;12.79;56.91;95552.34;5016008;28;20935;-79
2023/05/11 08:03:22;;;;;;;15.52;10.35;;;;;;;12.93;56.95;95558.63;5015110;28;20037;-78
2023/05/11 08:05:48;;;;;;;17.45;11.57;;;;;;;12.55;56.73;95490.25;5018008;28;20044;-78
2023/05/11 08:08:14;;;;;;;18.23;10.95;;;;;;;13.29;56.50;95577.78;5052765;28;20037;-78
2023/05/11 08:10:40;;;;;;;17.60;11.15;;;;;;;13.08;55.56;95493.78;5018679;28;20037;-79
2023/05/11 08:13:06;;;;;;;20.98;11.27;;;;;;;12.99;55.90;95471.50;5024215;28;20515;-79
2023/05/11 08:15:32;;;;;;;15.60;7.70;;;;;;;13.62;54.71;95573.47;5020733;28;20243;-79
2023/05/11 08:17:58;;;;;;;12.90;8.80;;;;;;;13.66;54.26;95560.34;5019278;28;20098;-79
2023/05/11 08:20:24;;;;;;;14.10;9.45;;;;;;;13.73;53.74;95531.50;5021611;28;20037;-79
2023/05/11 08:22:50;;;;;;;18.58;9.20;;;;;;;13.39;52.68;95473.78;5020963;28;20128;-79
2023/05/11 08:25:15;;;;;;;14.15;9.30;;;;;;;13.99;52.91;95574.66;5023119;28;20495;-79
2023/05/11 08:27:40;;;;;;;14.75;8.15;;;;;;;13.50;53.11;95506.44;5030642;28;20581;-79
2023/05/11 08:30:08;;;;;;;13.80;7.72;;;;;;;14.05;53.33;95550.28;5021888;28;20119;-79
2023/05/11 08:32:34;;;;;;;11.13;5.82;;;;;;;14.10;54.48;95530.78;5022753;28;20064;-79
2023/05/11 08:35:00;;;;;;;11.73;5.38;;;;;;;14.35;52.93;95533.09;5023060;28;20107;-80
2023/05/11 08:37:25;;;;;;;11.32;4.75;;;;;;;14.20;53.34;95539.44;5024562;28;20041;-79
2023/05/11 08:39:52;;;;;;;16.50;6.88;;;;;;;14.58;51.72;95558.16;5007255;28;20048;-80
2023/05/11 08:42:19;;;;;;;9.60;5.55;;;;;;;14.75;51.11;95579.81;5015051;28;20426;-79
2023/05/11 08:44:46;;;;;;;14.35;7.82;;;;;;;14.54;51.56;95525.94;5030824;28;20045;-79
2023/05/11 08:47:12;;;;;;;13.27;5.30;;;;;;;14.62;52.75;95553.84;5027482;28;20587;-81
2023/05/11 08:49:38;;;;;;;7.95;5.75;;;;;;;14.57;51.52;95519.22;5025693;28;20037;-83
2023/05/11 08:52:04;;;;;;;8.23;5.25;;;;;;;14.52;52.07;95535.28;5029765;28;20116;-80
2023/05/11 08:54:30;;;;;;;15.32;5.57;;;;;;;15.02;50.63;95571.13;5028144;28;20529;-79
2023/05/11 08:56:57;;;;;;;10.63;6.10;;;;;;;15.04;50.99;95537.69;5033704;28;20408;-80
2023/05/11 08:59:26;;;;;;;14.13;6.10;;;;;;;14.92;51.24;95533.88;5030599;28;20036;-79
2023/05/11 09:01:53;;;;;;;7.38;4.97;;;;;;;15.07;50.56;95561.16;5016802;28;20433;-79
2023/05/11 09:04:20;;;;;;;8.77;4.88;;;;;;;14.87;51.84;95550.00;5029107;28;20032;-79
2023/05/11 09:06:46;;;;;;;8.10;5.32;;;;;;;14.84;51.70;95548.69;5024648;28;20025;-79
2023/05/11 09:09:12;;;;;;;9.38;5.22;;;;;;;14.72;52.74;95532.34;5027457;28;20045;-79
2023/05/11 09:11:38;;;;;;;8.45;5.43;;;;;;;14.81;51.68;95557.28;5025923;28;20044;-79
2023/05/11 09:14:04;;;;;;;8.70;5.10;;;;;;;14.87;51.52;95525.97;5018898;28;20036;-79
2023/05/11 09:16:29;;;;;;;9.40;5.10;;;;;;;14.98;51.77;95532.72;5013108;28;20067;-79
2023/05/11 09:18:59;;;;;;;9.68;4.63;;;;;;;14.98;50.99;95514.81;5029175;28;20041;-79
2023/05/11 09:21:24;;;;;;;13.02;5.22;;;;;;;15.07;52.73;95557.69;5030959;28;20021;-79
2023/05/11 09:23:51;;;;;;;13.95;4.63;;;;;;;15.09;52.22;95547.50;5018652;28;20048;-79
2023/05/11 09:26:19;;;;;;;9.02;4.40;;;;;;;14.96;51.44;95567.72;5027590;28;20021;-79
2023/05/11 09:28:51;;;;;;;11.07;4.75;;;;;;;14.66;52.10;95538.81;5027910;28;20439;-78
2023/05/11 09:31:46;;;;;;;7.63;4.90;;;;;;;15.09;52.10;95563.53;5021885;28;20069;-80
2023/05/11 09:34:19;;;;;;;16.08;6.43;;;;;;;14.52;51.90;95460.56;5012102;28;20716;-79
2023/05/11 09:36:55;;;;;;;10.98;5.10;;;;;;;14.71;51.80;95471.22;5014062;28;20453;-79
2023/05/11 09:39:35;;;;;;;5.95;4.53;;;;;;;14.88;51.90;95519.53;5021659;28;20037;-79
2023/05/11 09:42:18;;;;;;;8.18;4.82;;;;;;;14.89;51.84;95553.94;5040397;28;20092;-79
2023/05/11 09:44:45;;;;;;;10.55;5.20;;;;;;;14.86;51.16;95511.81;5027880;28;20105;-79
2023/05/11 09:47:20;;;;;;;9.15;4.70;;;;;;;14.68;51.25;95509.97;5053810;28;20068;-79
2023/05/11 09:49:46;;;;;;;10.80;5.10;;;;;;;14.76;52.60;95530.66;5039279;28;20867;-79
2023/05/11 09:52:14;;;;;;;8.57;5.38;;;;;;;14.98;51.49;95524.69;5054478;28;20048;-82
2023/05/11 09:54:44;;;;;;;6.60;5.35;;;;;;;14.93;52.47;95540.81;5024345;28;20423;-81
2023/05/11 09:57:25;;;;;;;8.30;4.93;;;;;;;15.30;51.56;95538.06;5026025;28;20029;-81
2023/05/11 09:59:51;;;;;;;9.77;5.33;;;;;;;15.43;52.02;95545.28;5025553;28;20128;-85
2023/05/11 10:02:33;;;;;;;7.75;4.57;;;;;;;15.11;51.49;95433.13;5018695;28;20881;-82
2023/05/11 10:05:00;;;;;;;11.63;4.45;;;;;;;15.57;49.48;95448.31;5015950;28;20129;-81
2023/05/11 10:07:37;;;;;;;5.95;4.07;;;;;;;15.61;49.42;95446.63;5018897;28;20106;-82
2023/05/11 10:10:08;;;;;;;11.02;6.30;;;;;;;15.59;48.79;95412.19;5025837;28;20033;-81
2023/05/11 10:12:38;;;;;;;8.93;4.85;;;;;;;15.98;49.58;95533.88;5022310;28;20029;-81
2023/05/11 10:15:06;;;;;;;15.00;5.65;;;;;;;15.74;50.27;95459.19;5028637;28;20079;-78
2023/05/11 10:17:32;;;;;;;11.85;5.00;;;;;;;16.31;49.13;95513.91;5027008;28;20058;-79
2023/05/11 10:19:59;;;;;;;17.48;5.07;;;;;;;16.44;48.59;95505.03;5022371;28;20433;-85
2023/05/11 10:22:26;;;;;;;11.50;4.68;;;;;;;15.45;49.67;95358.72;5017026;28;20297;-79
2023/05/11 10:24:53;;;;;;;7.90;4.75;;;;;;;16.49;48.20;95520.97;5005411;28;20105;-79
2023/05/11 10:27:20;;;;;;;11.57;4.40;;;;;;;16.37;47.74;95514.56;5015757;28;20057;-82
2023/05/11 10:29:46;;;;;;;8.02;4.60;;;;;;;16.86;47.08;95503.03;5014649;28;20224;-80
2023/05/11 10:32:16;;;;;;;7.70;4.50;;;;;;;16.47;47.79;95476.88;5014550;28;20041;-78
2023/05/11 10:34:43;;;;;;;9.77;4.50;;;;;;;16.88;47.35;95503.50;5015648;28;20644;-78
2023/05/11 10:37:09;;;;;;;7.95;4.70;;;;;;;16.54;48.43;95490.63;5017311;28;20033;-79
2023/05/11 10:39:39;;;;;;;11.63;4.47;;;;;;;16.46;47.80;95453.88;5015204;28;20029;-78
2023/05/11 10:42:40;;;;;;;9.10;4.53;;;;;;;16.84;47.26;95506.03;5022394;28;20369;-78
2023/05/11 10:45:12;;;;;;;9.37;4.60;;;;;;;17.03;48.77;95499.66;4996505;28;20286;-79
2023/05/11 10:47:53;;;;;;;7.07;4.22;;;;;;;17.25;46.32;95494.28;5020820;28;20057;-78
2023/05/11 10:50:38;;;;;;;8.23;3.92;;;;;;;17.61;45.15;95500.31;5017047;28;20029;-78
2023/05/11 10:53:19;;;;;;;8.00;5.07;;;;;;;17.73;45.00;95508.56;4995807;28;20476;-78
2023/05/11 10:56:19;;;;;;;9.60;4.47;;;;;;;17.97;45.08;95502.00;5020404;28;20252;-78
2023/05/11 10:58:56;;;;;;;8.98;5.13;;;;;;;18.21;45.00;95498.91;5020397;28;20294;-78
2023/05/11 11:01:39;;;;;;;10.55;4.75;;;;;;;18.21;44.22;95466.69;5023560;28;20385;-78
2023/05/11 11:04:06;;;;;;;8.23;4.05;;;;;;;18.49;43.50;95492.13;5018173;28;20406;-77
2023/05/11 11:06:34;;;;;;;7.85;3.97;;;;;;;18.13;44.21;95492.41;5027817;28;20515;-78
2023/05/11 11:09:04;;;;;;;7.07;3.55;;;;;;;17.87;44.95;95486.97;5059102;28;20024;-78
2023/05/11 11:11:31;;;;;;;13.50;4.38;;;;;;;17.82;45.26;95499.75;5025556;28;20258;-83
2023/05/11 11:14:02;;;;;;;7.95;3.90;;;;;;;17.76;43.68;95477.66;5023719;28;20449;-81
2023/05/11 11:16:31;;;;;;;6.07;3.97;;;;;;;17.79;44.45;95419.88;5023830;28;20055;-82
2023/05/11 11:19:29;;;;;;;6.65;4.30;;;;;;;18.24;44.43;95496.38;5019641;28;20041;-80
2023/05/11 11:21:55;;;;;;;10.45;5.72;;;;;;;17.94;43.54;95494.56;5009892;28;20564;-78
2023/05/11 11:24:37;;;;;;;11.50;6.82;;;;;;;18.01;42.91;95490.31;5021941;28;20047;-79
2023/05/11 11:27:06;;;;;;;6.88;3.70;;;;;;;17.61;45.01;95454.75;5020421;28;20034;-78
2023/05/11 11:29:34;;;;;;;7.72;3.88;;;;;;;17.70;44.03;95468.94;5018440;28;20053;-78